createdAt,value
2022-11-17T00:04:43.464Z,8.66
2022-11-17T00:10:02.123Z,8.7
2022-11-17T00:15:21.445Z,8.75
2022-11-17T00:20:40.405Z,8.75
2022-11-17T00:26:00.155Z,8.7
2022-11-17T00:31:19.810Z,8.52
2022-11-17T00:36:39.108Z,8.25
2022-11-17T00:41:58.106Z,8.18
2022-11-17T00:47:17.604Z,7.94
2022-11-17T00:52:37.174Z,7.81
2022-11-17T00:57:56.806Z,8.17
2022-11-17T01:03:15.631Z,8.49
2022-11-17T01:08:34.858Z,8.72
2022-11-17T01:13:53.907Z,8.89
2022-11-17T01:19:13.247Z,8.87
2022-11-17T01:24:32.763Z,8.75
2022-11-17T01:29:52.559Z,8.8
2022-11-17T01:35:11.640Z,8.93
2022-11-17T01:40:30.755Z,8.99
2022-11-17T01:45:49.893Z,9.03
2022-11-17T01:51:09.427Z,9.03
2022-11-17T01:56:28.847Z,9.01
2022-11-17T02:01:48.285Z,8.93
2022-11-17T02:07:07.388Z,8.77
2022-11-17T02:12:27.129Z,8.75
2022-11-17T02:17:46.752Z,8.77
2022-11-17T02:23:05.826Z,8.93
2022-11-17T02:28:24.887Z,9.03
2022-11-17T02:33:43.699Z,9.07
2022-11-17T02:39:03.398Z,9.1
2022-11-17T02:44:22.302Z,9.16
2022-11-17T02:49:41.791Z,9.16
2022-11-17T02:55:00.757Z,9.22
2022-11-17T03:00:19.735Z,9.18
2022-11-17T03:05:39.358Z,8.93
2022-11-17T03:10:57.630Z,8.82
2022-11-17T03:16:17.002Z,8.91
2022-11-17T03:21:36.527Z,8.84
2022-11-17T03:26:55.641Z,8.85
2022-11-17T03:32:15.329Z,8.87
2022-11-17T03:37:35.296Z,8.85
2022-11-17T03:42:54.327Z,8.8
2022-11-17T03:48:14.074Z,8.77
2022-11-17T03:53:33.630Z,8.66
2022-11-17T03:58:52.864Z,8.55
2022-11-17T04:04:12.397Z,8.55
2022-11-17T04:09:31.261Z,8.6
2022-11-17T04:09:56.332Z,8.8
2022-11-17T04:15:15.592Z,8.68
2022-11-17T04:20:34.453Z,8.68
2022-11-17T04:25:53.911Z,8.72
2022-11-17T04:31:13.440Z,8.7
2022-11-17T04:36:32.648Z,8.75
2022-11-17T04:41:51.576Z,8.82
2022-11-17T04:47:11.316Z,8.91
2022-11-17T04:52:30.864Z,9
2022-11-17T04:57:50.290Z,9.16
2022-11-17T05:03:10.011Z,9.2
2022-11-17T05:08:28.996Z,8.93
2022-11-17T05:13:48.128Z,8.42
2022-11-17T05:19:07.017Z,8.22
2022-11-17T05:24:26.367Z,8.25
2022-11-17T05:29:46.055Z,8.29
2022-11-17T05:35:05.084Z,8.29
2022-11-17T05:40:24.100Z,8.32
2022-11-17T05:45:42.864Z,8.34
2022-11-17T05:51:03.079Z,8.22
2022-11-17T05:56:22.175Z,8.25
2022-11-17T06:01:40.365Z,8.37
2022-11-17T06:07:00.050Z,8.41
2022-11-17T06:12:19.467Z,8.38
2022-11-17T06:17:39.071Z,8.43
2022-11-17T06:22:58.373Z,8.51
2022-11-17T06:28:17.939Z,8.58
2022-11-17T06:33:36.675Z,8.56
2022-11-17T06:38:55.504Z,8.53
2022-11-17T06:44:15.123Z,8.51
2022-11-17T06:49:34.345Z,8.6
2022-11-17T06:54:53.308Z,8.68
2022-11-17T07:00:12.321Z,8.8
2022-11-17T07:05:31.676Z,8.75
2022-11-17T07:10:51.388Z,8.72
2022-11-17T07:16:10.275Z,8.77
2022-11-17T07:21:29.393Z,8.76
2022-11-17T07:26:48.308Z,8.76
2022-11-17T07:32:08.655Z,8.62
2022-11-17T07:37:28.175Z,8.59
2022-11-17T07:42:47.326Z,8.62
2022-11-17T07:48:06.578Z,8.56
2022-11-17T07:53:25.583Z,8.68
2022-11-17T07:58:44.353Z,9.17
2022-11-17T08:04:03.445Z,9.21
2022-11-17T08:09:21.725Z,9.21
2022-11-17T08:14:41.336Z,9.18
2022-11-17T08:20:00.445Z,9.22
2022-11-17T08:25:19.968Z,9.32
2022-11-17T08:30:39.687Z,9.37
2022-11-17T08:35:59.139Z,9.43
2022-11-17T08:41:17.840Z,9.54
2022-11-17T08:46:37.252Z,9.72
2022-11-17T08:51:56.532Z,9.79
2022-11-17T08:57:15.743Z,10.03
2022-11-17T09:02:34.498Z,10.29
2022-11-17T09:07:54.271Z,10.2
2022-11-17T09:13:17.477Z,9.83
2022-11-17T09:18:32.356Z,9.63
2022-11-17T09:23:51.917Z,9.75
2022-11-17T09:29:11.343Z,9.89
2022-11-17T09:34:30.099Z,10.32
2022-11-17T09:39:48.859Z,10.88
2022-11-17T09:45:08.128Z,11.33
2022-11-17T09:50:26.824Z,11.33
2022-11-17T09:55:45.864Z,11.26
2022-11-17T10:01:05.271Z,11.15
2022-11-17T10:06:24.144Z,11.07
2022-11-17T10:11:43.711Z,11.07
2022-11-17T10:17:02.925Z,11.08
2022-11-17T10:22:22.040Z,11.08
2022-11-17T10:27:41.560Z,10.97
2022-11-17T10:33:00.579Z,10.98
2022-11-17T10:38:20.547Z,11.14
2022-11-17T10:43:40.073Z,11.26
2022-11-17T10:48:58.898Z,11.33
2022-11-17T10:54:17.693Z,11.4
2022-11-17T10:59:35.994Z,11.5
2022-11-17T11:04:55.267Z,11.59
2022-11-17T11:10:14.576Z,11.6
2022-11-17T11:15:34.247Z,11.39
2022-11-17T11:20:53.359Z,11.18
2022-11-17T11:26:13.003Z,10.43
2022-11-17T11:31:31.093Z,9.34
2022-11-17T11:36:50.258Z,8.83
2022-11-17T11:42:09.216Z,8.68
2022-11-17T11:47:28.684Z,8.7
2022-11-17T11:52:47.879Z,8.75
2022-11-17T11:58:07.502Z,8.75
2022-11-17T12:03:34.270Z,8.72
2022-11-17T12:08:45.639Z,8.62
2022-11-17T12:14:05.073Z,8.6
2022-11-17T12:19:24.126Z,8.76
2022-11-17T12:24:43.798Z,8.99
2022-11-17T12:30:02.604Z,9.16
2022-11-17T12:35:22.511Z,9.34
2022-11-17T12:40:41.786Z,9.72
2022-11-17T12:46:00.914Z,10.65
2022-11-17T12:51:19.942Z,10.64
2022-11-17T12:56:39.458Z,10.32
2022-11-17T13:01:58.768Z,10.22
2022-11-17T13:07:18.289Z,10.3
2022-11-17T13:12:36.973Z,10.41
2022-11-17T13:17:56.567Z,10.51
2022-11-17T13:23:15.500Z,10.7
2022-11-17T13:28:34.633Z,11.42
2022-11-17T13:33:54.450Z,12.18
2022-11-17T13:39:12.967Z,11.58
2022-11-17T13:44:31.861Z,11.12
2022-11-17T13:49:51.772Z,11.07
2022-11-17T13:55:10.628Z,11.09
2022-11-17T14:00:30.082Z,11.04
2022-11-17T14:05:48.794Z,10.9
2022-11-17T14:11:18.474Z,10.72
2022-11-17T14:16:27.282Z,10.61
2022-11-17T14:21:46.229Z,10.39
2022-11-17T14:27:05.064Z,10
2022-11-17T14:32:24.156Z,9.82
2022-11-17T14:37:52.155Z,9.75
2022-11-17T14:43:02.003Z,9.77
2022-11-17T14:48:28.825Z,9.6
2022-11-17T14:53:41.983Z,9.27
2022-11-17T14:58:59.646Z,9.14
2022-11-17T15:04:48.683Z,9
2022-11-17T15:09:38.330Z,9.01
2022-11-17T15:14:57.780Z,9
2022-11-17T15:20:17.024Z,9.03
2022-11-17T15:25:35.848Z,8.87
2022-11-17T15:31:04.031Z,8.77
2022-11-17T15:36:14.239Z,8.84
2022-11-17T15:41:33.740Z,8.8
2022-11-17T15:46:53.141Z,8.79
2022-11-17T15:52:12.098Z,8.72
2022-11-17T15:57:31.807Z,8.72
2022-11-17T16:02:54.425Z,8.64
2022-11-17T16:08:09.989Z,8.62
2022-11-17T16:13:28.959Z,8.56
2022-11-17T16:18:48.075Z,8.49
2022-11-17T16:24:07.025Z,8.49
2022-11-17T16:29:26.429Z,8.39
2022-11-17T16:34:53.497Z,8.31
2022-11-17T16:40:05.092Z,8.31
2022-11-17T16:45:24.804Z,8.29
2022-11-17T16:50:43.983Z,8.24
2022-11-17T16:56:03.532Z,8.2
2022-11-17T17:01:23.074Z,8.28
2022-11-17T17:06:42.834Z,8.31
2022-11-17T17:12:02.070Z,8.25
2022-11-17T17:17:21.015Z,8.2
2022-11-17T17:22:39.726Z,8.1
2022-11-17T17:27:58.749Z,8.1
2022-11-17T17:33:17.817Z,8.17
2022-11-17T17:38:37.446Z,8.34
2022-11-17T17:43:57.197Z,8.42
2022-11-17T17:49:17.129Z,8.47
2022-11-17T17:54:35.848Z,8.51
2022-11-17T17:59:55.052Z,8.56
2022-11-17T18:05:14.496Z,8.6
2022-11-17T18:10:33.631Z,8.49
2022-11-17T18:15:52.879Z,8.35
2022-11-17T18:21:12.529Z,8.32
2022-11-17T18:26:31.870Z,8.27
2022-11-17T18:31:50.914Z,8.27
2022-11-17T18:37:10.475Z,8.28
2022-11-17T18:42:37.791Z,8.25
2022-11-17T18:47:48.911Z,8.27
2022-11-17T18:53:08.191Z,8.35
2022-11-17T18:58:27.201Z,8.38
2022-11-17T19:03:46.109Z,8.41
2022-11-17T19:09:05.486Z,8.45
2022-11-17T19:14:24.732Z,8.52
2022-11-17T19:19:43.547Z,8.53
2022-11-17T19:25:03.265Z,8.53
2022-11-17T19:30:22.867Z,8.51
2022-11-17T19:35:42.324Z,8.51
2022-11-17T19:41:01.645Z,8.49
2022-11-17T19:46:20.906Z,8.51
2022-11-17T19:51:49.427Z,8.56
2022-11-17T19:57:07.868Z,8.52
2022-11-17T20:02:19.489Z,8.56
2022-11-17T20:07:38.354Z,8.55
2022-11-17T20:12:57.963Z,8.55
2022-11-17T20:18:17.217Z,8.56
2022-11-17T20:23:36.199Z,8.56
2022-11-17T20:28:55.152Z,8.53
2022-11-17T20:34:14.303Z,8.46
2022-11-17T20:39:33.215Z,8.43
2022-11-17T20:44:52.601Z,8.38
2022-11-17T20:50:11.949Z,8.32
2022-11-17T20:55:30.847Z,8.34
2022-11-17T21:00:49.950Z,8.28
2022-11-17T21:06:09.840Z,8.22
2022-11-17T21:11:29.890Z,8.2
2022-11-17T21:16:48.661Z,8.12
2022-11-17T21:22:09.002Z,8.1
2022-11-17T21:27:26.805Z,8.1
2022-11-17T21:32:45.730Z,8.14
2022-11-17T21:38:04.509Z,8.14
2022-11-17T21:43:24.366Z,8.18
2022-11-17T21:48:43.543Z,8.1
2022-11-17T21:54:02.580Z,8.1
2022-11-17T21:54:27.133Z,8.24
2022-11-17T21:59:46.206Z,8.12
2022-11-17T22:05:05.017Z,8.18
2022-11-17T22:10:24.317Z,8.22
2022-11-17T22:15:43.579Z,8.25
2022-11-17T22:21:02.618Z,8.29
2022-11-17T22:26:21.706Z,8.29
2022-11-17T22:31:41.273Z,8.2
2022-11-17T22:37:00.303Z,8.12
2022-11-17T22:42:19.130Z,8.05
2022-11-17T22:47:37.952Z,7.89
2022-11-17T22:52:56.833Z,7.87
2022-11-17T22:58:16.548Z,7.94
2022-11-17T23:03:36.375Z,7.94
2022-11-17T23:09:04.524Z,7.84
2022-11-17T23:14:14.733Z,7.86
2022-11-17T23:19:34.363Z,7.91
2022-11-17T23:24:53.797Z,8.04
2022-11-17T23:30:12.976Z,8.12
2022-11-17T23:35:40.085Z,8.14
2022-11-17T23:40:51.492Z,8.17
2022-11-17T23:46:10.598Z,8.1
2022-11-17T23:51:29.158Z,7.97
2022-11-17T23:56:48.188Z,7.97
